sensor_id;sensor_type;location;lat;lon;timestamp;pressure;altitude;pressure_sealevel;temperature;humidity
23446;BME280;11895;48.738;9.320;2022-08-19T00:02:13;98272.06;;;24.90;67.17
23446;BME280;11895;48.738;9.320;2022-08-19T00:04:41;98259.72;;;24.69;66.43
23446;BME280;11895;48.738;9.320;2022-08-19T00:07:08;98268.00;;;24.45;66.11
23446;BME280;11895;48.738;9.320;2022-08-19T00:09:36;98271.78;;;24.27;71.63
23446;BME280;11895;48.738;9.320;2022-08-19T00:12:03;98274.47;;;24.03;72.52
23446;BME280;11895;48.738;9.320;2022-08-19T00:14:31;98284.28;;;23.89;67.24
23446;BME280;11895;48.738;9.320;2022-08-19T00:16:59;98279.81;;;23.96;75.25
23446;BME280;11895;48.738;9.320;2022-08-19T00:19:28;98274.78;;;23.83;72.58
23446;BME280;11895;48.738;9.320;2022-08-19T00:21:55;98272.72;;;23.69;72.44
23446;BME280;11895;48.738;9.320;2022-08-19T00:24:23;98270.97;;;23.68;72.51
23446;BME280;11895;48.738;9.320;2022-08-19T00:26:51;98275.72;;;23.58;68.13
23446;BME280;11895;48.738;9.320;2022-08-19T00:29:20;98272.63;;;23.53;68.75
23446;BME280;11895;48.738;9.320;2022-08-19T00:31:48;98270.22;;;23.58;75.24
23446;BME280;11895;48.738;9.320;2022-08-19T00:34:17;98264.88;;;23.48;71.79
23446;BME280;11895;48.738;9.320;2022-08-19T00:36:45;98253.69;;;23.42;72.41
23446;BME280;11895;48.738;9.320;2022-08-19T00:39:14;98247.13;;;23.34;72.97
23446;BME280;11895;48.738;9.320;2022-08-19T00:41:44;98247.38;;;23.15;74.40
23446;BME280;11895;48.738;9.320;2022-08-19T00:44:20;98251.81;;;23.08;81.77
23446;BME280;11895;48.738;9.320;2022-08-19T00:46:55;98256.91;;;22.95;77.01
23446;BME280;11895;48.738;9.320;2022-08-19T00:49:32;98250.75;;;22.75;74.90
23446;BME280;11895;48.738;9.320;2022-08-19T00:52:07;98261.41;;;22.78;79.31
23446;BME280;11895;48.738;9.320;2022-08-19T00:54:37;98261.94;;;22.81;77.90
23446;BME280;11895;48.738;9.320;2022-08-19T00:57:08;98257.56;;;22.89;71.32
23446;BME280;11895;48.738;9.320;2022-08-19T00:59:42;98254.16;;;22.95;63.97
23446;BME280;11895;48.738;9.320;2022-08-19T01:02:28;98262.47;;;23.11;68.01
23446;BME280;11895;48.738;9.320;2022-08-19T01:04:56;98259.75;;;23.19;60.38
23446;BME280;11895;48.738;9.320;2022-08-19T01:07:24;98261.03;;;23.33;64.99
23446;BME280;11895;48.738;9.320;2022-08-19T01:09:52;98264.69;;;23.42;61.42
23446;BME280;11895;48.738;9.320;2022-08-19T01:12:20;98257.47;;;23.49;64.65
23446;BME280;11895;48.738;9.320;2022-08-19T01:14:47;98252.00;;;23.57;61.66
23446;BME280;11895;48.738;9.320;2022-08-19T01:17:15;98257.19;;;23.60;63.06
23446;BME280;11895;48.738;9.320;2022-08-19T01:19:45;98255.13;;;23.62;60.31
23446;BME280;11895;48.738;9.320;2022-08-19T01:22:38;98262.94;;;23.75;63.27
23446;BME280;11895;48.738;9.320;2022-08-19T01:25:13;98260.34;;;23.81;62.31
23446;BME280;11895;48.738;9.320;2022-08-19T01:27:45;98249.19;;;23.75;67.12
23446;BME280;11895;48.738;9.320;2022-08-19T01:30:19;98247.97;;;23.77;63.68
23446;BME280;11895;48.738;9.320;2022-08-19T01:32:51;98243.31;;;23.78;56.58
23446;BME280;11895;48.738;9.320;2022-08-19T01:35:21;98246.63;;;23.90;57.59
23446;BME280;11895;48.738;9.320;2022-08-19T01:40:25;98239.59;;;23.95;59.40
23446;BME280;11895;48.738;9.320;2022-08-19T01:42:55;98252.44;;;23.87;54.23
23446;BME280;11895;48.738;9.320;2022-08-19T01:45:25;98255.91;;;23.97;58.50
23446;BME280;11895;48.738;9.320;2022-08-19T01:47:54;98255.59;;;24.08;60.16
23446;BME280;11895;48.738;9.320;2022-08-19T01:50:30;98248.53;;;24.14;57.58
23446;BME280;11895;48.738;9.320;2022-08-19T01:53:04;98246.13;;;24.19;59.00
23446;BME280;11895;48.738;9.320;2022-08-19T01:55:39;98244.25;;;24.19;60.08
23446;BME280;11895;48.738;9.320;2022-08-19T01:58:12;98242.19;;;24.13;56.96
23446;BME280;11895;48.738;9.320;2022-08-19T02:00:42;98249.03;;;24.17;56.90
23446;BME280;11895;48.738;9.320;2022-08-19T02:03:10;98247.69;;;24.13;51.59
23446;BME280;11895;48.738;9.320;2022-08-19T02:05:39;98249.22;;;24.24;57.45
23446;BME280;11895;48.738;9.320;2022-08-19T02:08:07;98249.94;;;24.18;57.96
23446;BME280;11895;48.738;9.320;2022-08-19T02:10:59;98252.13;;;24.22;55.14
23446;BME280;11895;48.738;9.320;2022-08-19T02:13:27;98248.38;;;24.23;53.53
23446;BME280;11895;48.738;9.320;2022-08-19T02:15:54;98246.97;;;24.35;57.38
23446;BME280;11895;48.738;9.320;2022-08-19T02:18:22;98247.88;;;24.36;57.35
23446;BME280;11895;48.738;9.320;2022-08-19T02:20:54;98253.69;;;24.25;58.07
23446;BME280;11895;48.738;9.320;2022-08-19T02:23:21;98253.00;;;24.06;58.60
23446;BME280;11895;48.738;9.320;2022-08-19T02:25:50;98260.03;;;24.01;58.09
23446;BME280;11895;48.738;9.320;2022-08-19T02:28:18;98261.59;;;24.03;58.45
23446;BME280;11895;48.738;9.320;2022-08-19T02:30:47;98265.22;;;24.04;59.05
23446;BME280;11895;48.738;9.320;2022-08-19T02:33:15;98257.09;;;24.02;58.66
23446;BME280;11895;48.738;9.320;2022-08-19T02:35:44;98260.19;;;23.91;58.09
23446;BME280;11895;48.738;9.320;2022-08-19T02:38:13;98249.69;;;23.78;58.63
23446;BME280;11895;48.738;9.320;2022-08-19T02:40:55;98246.94;;;23.78;58.86
23446;BME280;11895;48.738;9.320;2022-08-19T02:43:25;98243.53;;;23.84;57.97
23446;BME280;11895;48.738;9.320;2022-08-19T02:45:53;98242.47;;;23.77;58.10
23446;BME280;11895;48.738;9.320;2022-08-19T02:48:22;98238.69;;;23.78;59.40
23446;BME280;11895;48.738;9.320;2022-08-19T02:50:51;98244.88;;;23.72;58.85
23446;BME280;11895;48.738;9.320;2022-08-19T02:53:24;98231.50;;;23.85;58.00
23446;BME280;11895;48.738;9.320;2022-08-19T02:55:53;98240.03;;;23.66;60.38
23446;BME280;11895;48.738;9.320;2022-08-19T02:58:21;98235.28;;;23.84;58.47
23446;BME280;11895;48.738;9.320;2022-08-19T03:00:53;98237.69;;;23.79;54.67
23446;BME280;11895;48.738;9.320;2022-08-19T03:03:22;98242.47;;;23.77;58.87
23446;BME280;11895;48.738;9.320;2022-08-19T03:05:50;98228.91;;;23.76;58.07
23446;BME280;11895;48.738;9.320;2022-08-19T03:08:24;98240.44;;;23.79;59.65
23446;BME280;11895;48.738;9.320;2022-08-19T03:10:52;98246.25;;;23.76;57.18
23446;BME280;11895;48.738;9.320;2022-08-19T03:13:20;98250.22;;;23.82;59.39
23446;BME280;11895;48.738;9.320;2022-08-19T03:15:48;98248.16;;;23.84;60.90
23446;BME280;11895;48.738;9.320;2022-08-19T03:18:16;98254.81;;;23.73;59.16
23446;BME280;11895;48.738;9.320;2022-08-19T03:20:47;98253.22;;;23.63;58.30
23446;BME280;11895;48.738;9.320;2022-08-19T03:23:16;98256.53;;;23.66;60.92
23446;BME280;11895;48.738;9.320;2022-08-19T03:25:47;98270.56;;;23.63;62.45
23446;BME280;11895;48.738;9.320;2022-08-19T03:28:35;98272.38;;;23.72;61.56
23446;BME280;11895;48.738;9.320;2022-08-19T03:31:05;98259.31;;;23.74;58.92
23446;BME280;11895;48.738;9.320;2022-08-19T03:33:54;98262.75;;;23.76;61.17
23446;BME280;11895;48.738;9.320;2022-08-19T03:36:24;98258.97;;;23.77;61.48
23446;BME280;11895;48.738;9.320;2022-08-19T03:38:58;98256.41;;;23.76;60.74
23446;BME280;11895;48.738;9.320;2022-08-19T03:41:30;98260.63;;;23.62;60.87
23446;BME280;11895;48.738;9.320;2022-08-19T03:44:14;98260.31;;;23.65;61.72
23446;BME280;11895;48.738;9.320;2022-08-19T03:46:47;98264.06;;;23.64;61.63
23446;BME280;11895;48.738;9.320;2022-08-19T03:49:19;98262.06;;;23.74;61.44
23446;BME280;11895;48.738;9.320;2022-08-19T03:51:54;98269.38;;;23.57;61.72
23446;BME280;11895;48.738;9.320;2022-08-19T03:54:23;98274.22;;;23.64;61.82
23446;BME280;11895;48.738;9.320;2022-08-19T03:56:54;98270.56;;;23.55;60.46
23446;BME280;11895;48.738;9.320;2022-08-19T03:59:28;98276.75;;;23.57;60.49
23446;BME280;11895;48.738;9.320;2022-08-19T04:02:00;98272.06;;;23.49;62.64
23446;BME280;11895;48.738;9.320;2022-08-19T04:04:29;98265.56;;;23.50;61.46
23446;BME280;11895;48.738;9.320;2022-08-19T04:06:58;98278.81;;;23.55;59.86
23446;BME280;11895;48.738;9.320;2022-08-19T04:09:25;98274.22;;;23.64;61.17
23446;BME280;11895;48.738;9.320;2022-08-19T04:11:55;98265.75;;;23.57;61.83
23446;BME280;11895;48.738;9.320;2022-08-19T04:14:26;98272.28;;;23.56;62.03
23446;BME280;11895;48.738;9.320;2022-08-19T04:16:58;98259.94;;;23.60;60.11
23446;BME280;11895;48.738;9.320;2022-08-19T04:19:29;98258.56;;;23.64;59.97
23446;BME280;11895;48.738;9.320;2022-08-19T04:21:57;98260.03;;;23.42;60.90
23446;BME280;11895;48.738;9.320;2022-08-19T04:24:25;98260.75;;;23.52;61.87
23446;BME280;11895;48.738;9.320;2022-08-19T04:26:52;98259.91;;;23.52;61.51
23446;BME280;11895;48.738;9.320;2022-08-19T04:29:23;98255.59;;;23.49;59.05
23446;BME280;11895;48.738;9.320;2022-08-19T04:31:53;98257.34;;;23.58;61.31
23446;BME280;11895;48.738;9.320;2022-08-19T04:34:25;98253.72;;;23.58;62.02
23446;BME280;11895;48.738;9.320;2022-08-19T04:36:55;98263.34;;;23.54;61.58
23446;BME280;11895;48.738;9.320;2022-08-19T04:39:28;98252.00;;;23.57;62.01
23446;BME280;11895;48.738;9.320;2022-08-19T04:42:17;98252.53;;;23.60;62.44
23446;BME280;11895;48.738;9.320;2022-08-19T04:45:08;98252.75;;;23.67;61.51
23446;BME280;11895;48.738;9.320;2022-08-19T04:47:42;98256.84;;;23.55;62.37
23446;BME280;11895;48.738;9.320;2022-08-19T04:50:25;98255.44;;;23.59;62.09
23446;BME280;11895;48.738;9.320;2022-08-19T04:52:53;98246.06;;;23.70;59.88
23446;BME280;11895;48.738;9.320;2022-08-19T04:55:22;98257.59;;;23.81;60.12
23446;BME280;11895;48.738;9.320;2022-08-19T04:57:53;98263.78;;;23.83;60.91
23446;BME280;11895;48.738;9.320;2022-08-19T05:00:20;98268.22;;;23.68;58.32
23446;BME280;11895;48.738;9.320;2022-08-19T05:02:48;98273.03;;;23.66;60.40
23446;BME280;11895;48.738;9.320;2022-08-19T05:05:16;98269.53;;;23.56;60.36
23446;BME280;11895;48.738;9.320;2022-08-19T05:07:44;98279.06;;;23.70;60.45
23446;BME280;11895;48.738;9.320;2022-08-19T05:10:12;98284.41;;;23.71;60.70
23446;BME280;11895;48.738;9.320;2022-08-19T05:12:39;98288.84;;;23.72;61.04
23446;BME280;11895;48.738;9.320;2022-08-19T05:15:07;98288.19;;;23.78;58.89
23446;BME280;11895;48.738;9.320;2022-08-19T05:17:37;98310.56;;;23.92;61.21
23446;BME280;11895;48.738;9.320;2022-08-19T05:20:25;98319.53;;;23.94;59.60
23446;BME280;11895;48.738;9.320;2022-08-19T05:23:11;98330.00;;;23.90;59.76
23446;BME280;11895;48.738;9.320;2022-08-19T05:25:48;98340.47;;;23.87;60.29
23446;BME280;11895;48.738;9.320;2022-08-19T05:28:18;98345.94;;;23.70;61.01
23446;BME280;11895;48.738;9.320;2022-08-19T05:30:46;98349.91;;;23.76;60.24
23446;BME280;11895;48.738;9.320;2022-08-19T05:33:15;98350.66;;;23.60;60.95
23446;BME280;11895;48.738;9.320;2022-08-19T05:35:42;98362.66;;;23.59;60.09
23446;BME280;11895;48.738;9.320;2022-08-19T05:38:10;98367.94;;;23.78;61.42
23446;BME280;11895;48.738;9.320;2022-08-19T05:40:39;98371.44;;;23.63;60.24
23446;BME280;11895;48.738;9.320;2022-08-19T05:43:07;98367.38;;;23.67;61.39
23446;BME280;11895;48.738;9.320;2022-08-19T05:45:39;98357.16;;;23.51;61.16
23446;BME280;11895;48.738;9.320;2022-08-19T05:48:08;98361.19;;;23.65;61.81
23446;BME280;11895;48.738;9.320;2022-08-19T05:50:39;98354.19;;;23.78;60.53
23446;BME280;11895;48.738;9.320;2022-08-19T05:53:08;98355.94;;;23.79;61.54
23446;BME280;11895;48.738;9.320;2022-08-19T05:55:36;98367.66;;;23.90;59.93
23446;BME280;11895;48.738;9.320;2022-08-19T05:58:05;98363.88;;;23.91;60.09
23446;BME280;11895;48.738;9.320;2022-08-19T06:00:35;98357.28;;;23.83;61.14
23446;BME280;11895;48.738;9.320;2022-08-19T06:03:03;98359.41;;;23.90;61.71
23446;BME280;11895;48.738;9.320;2022-08-19T06:05:39;98357.38;;;24.00;61.29
23446;BME280;11895;48.738;9.320;2022-08-19T06:08:18;98362.16;;;23.90;59.43
23446;BME280;11895;48.738;9.320;2022-08-19T06:11:16;98369.06;;;23.94;60.26
23446;BME280;11895;48.738;9.320;2022-08-19T06:14:08;98365.59;;;23.92;60.46
23446;BME280;11895;48.738;9.320;2022-08-19T06:16:44;98359.69;;;23.78;61.59
23446;BME280;11895;48.738;9.320;2022-08-19T06:19:17;98365.94;;;23.89;60.69
23446;BME280;11895;48.738;9.320;2022-08-19T06:21:48;98363.00;;;23.56;61.86
23446;BME280;11895;48.738;9.320;2022-08-19T06:24:18;98354.03;;;23.88;61.12
23446;BME280;11895;48.738;9.320;2022-08-19T06:26:49;98362.50;;;24.03;61.48
23446;BME280;11895;48.738;9.320;2022-08-19T06:29:25;98373.03;;;24.16;59.75
23446;BME280;11895;48.738;9.320;2022-08-19T06:31:56;98368.00;;;24.03;61.02
23446;BME280;11895;48.738;9.320;2022-08-19T06:34:25;98368.38;;;24.00;62.00
23446;BME280;11895;48.738;9.320;2022-08-19T06:36:55;98378.34;;;24.01;67.08
23446;BME280;11895;48.738;9.320;2022-08-19T06:39:25;98376.41;;;23.85;68.92
23446;BME280;11895;48.738;9.320;2022-08-19T06:41:57;98364.53;;;23.84;67.03
23446;BME280;11895;48.738;9.320;2022-08-19T06:44:31;98368.59;;;23.72;69.30
23446;BME280;11895;48.738;9.320;2022-08-19T06:47:12;98370.19;;;23.75;69.21
23446;BME280;11895;48.738;9.320;2022-08-19T06:49:53;98379.47;;;23.82;69.07
23446;BME280;11895;48.738;9.320;2022-08-19T06:52:33;98367.66;;;23.90;67.66
23446;BME280;11895;48.738;9.320;2022-08-19T06:55:04;98373.16;;;23.90;67.41
23446;BME280;11895;48.738;9.320;2022-08-19T06:57:33;98369.06;;;23.94;70.80
23446;BME280;11895;48.738;9.320;2022-08-19T07:00:02;98377.78;;;23.89;76.45
23446;BME280;11895;48.738;9.320;2022-08-19T07:02:32;98387.00;;;23.20;86.76
23446;BME280;11895;48.738;9.320;2022-08-19T07:05:00;98384.50;;;22.47;85.86
23446;BME280;11895;48.738;9.320;2022-08-19T07:07:34;98387.34;;;22.19;95.06
23446;BME280;11895;48.738;9.320;2022-08-19T07:10:03;98382.94;;;21.81;97.51
23446;BME280;11895;48.738;9.320;2022-08-19T07:12:37;98393.25;;;21.03;100.00
23446;BME280;11895;48.738;9.320;2022-08-19T07:15:05;98386.66;;;20.96;100.00
23446;BME280;11895;48.738;9.320;2022-08-19T07:17:35;98381.59;;;21.11;100.00
23446;BME280;11895;48.738;9.320;2022-08-19T07:20:06;98383.22;;;20.94;100.00
23446;BME280;11895;48.738;9.320;2022-08-19T07:22:40;98385.19;;;21.11;100.00
23446;BME280;11895;48.738;9.320;2022-08-19T07:25:09;98388.50;;;21.15;100.00
23446;BME280;11895;48.738;9.320;2022-08-19T07:27:36;98388.09;;;21.10;100.00
23446;BME280;11895;48.738;9.320;2022-08-19T07:30:07;98394.00;;;21.05;100.00
23446;BME280;11895;48.738;9.320;2022-08-19T07:32:38;98399.06;;;20.90;100.00
23446;BME280;11895;48.738;9.320;2022-08-19T07:35:07;98402.66;;;21.00;100.00
23446;BME280;11895;48.738;9.320;2022-08-19T07:37:36;98397.63;;;20.96;100.00
23446;BME280;11895;48.738;9.320;2022-08-19T07:40:06;98409.19;;;20.80;100.00
23446;BME280;11895;48.738;9.320;2022-08-19T07:42:34;98407.44;;;20.89;100.00
23446;BME280;11895;48.738;9.320;2022-08-19T07:45:02;98402.81;;;20.99;100.00
23446;BME280;11895;48.738;9.320;2022-08-19T07:47:30;98402.78;;;21.09;100.00
23446;BME280;11895;48.738;9.320;2022-08-19T07:50:17;98409.66;;;21.22;100.00
23446;BME280;11895;48.738;9.320;2022-08-19T07:52:48;98401.44;;;21.32;100.00
23446;BME280;11895;48.738;9.320;2022-08-19T07:55:22;98407.66;;;21.34;100.00
23446;BME280;11895;48.738;9.320;2022-08-19T07:58:14;98405.69;;;21.54;100.00
23446;BME280;11895;48.738;9.320;2022-08-19T08:00:45;98408.47;;;21.44;100.00
23446;BME280;11895;48.738;9.320;2022-08-19T08:03:16;98415.97;;;21.52;100.00
23446;BME280;11895;48.738;9.320;2022-08-19T08:05:46;98412.19;;;21.53;100.00
23446;BME280;11895;48.738;9.320;2022-08-19T08:08:31;98404.44;;;21.48;100.00
23446;BME280;11895;48.738;9.320;2022-08-19T08:11:19;98417.97;;;21.50;100.00
23446;BME280;11895;48.738;9.320;2022-08-19T08:13:49;98415.09;;;21.42;100.00
23446;BME280;11895;48.738;9.320;2022-08-19T08:16:28;98408.50;;;21.35;100.00
23446;BME280;11895;48.738;9.320;2022-08-19T08:19:00;98417.06;;;21.59;100.00
23446;BME280;11895;48.738;9.320;2022-08-19T08:21:28;98416.22;;;21.59;100.00
23446;BME280;11895;48.738;9.320;2022-08-19T08:23:55;98417.69;;;21.53;100.00
23446;BME280;11895;48.738;9.320;2022-08-19T08:26:23;98405.56;;;21.46;100.00
23446;BME280;11895;48.738;9.320;2022-08-19T08:28:52;98422.72;;;21.58;100.00
23446;BME280;11895;48.738;9.320;2022-08-19T08:31:20;98416.22;;;21.59;100.00
23446;BME280;11895;48.738;9.320;2022-08-19T08:33:47;98418.34;;;21.65;100.00
23446;BME280;11895;48.738;9.320;2022-08-19T08:36:15;98415.16;;;21.69;100.00
23446;BME280;11895;48.738;9.320;2022-08-19T08:38:43;98412.16;;;21.63;100.00
23446;BME280;11895;48.738;9.320;2022-08-19T08:47:08;98408.06;;;21.76;100.00
23446;BME280;11895;48.738;9.320;2022-08-19T08:55:03;98408.44;;;22.09;100.00
23446;BME280;11895;48.738;9.320;2022-08-19T08:57:49;98416.78;;;22.17;100.00
23446;BME280;11895;48.738;9.320;2022-08-19T09:00:26;98414.16;;;22.25;100.00
23446;BME280;11895;48.738;9.320;2022-08-19T09:02:55;98422.78;;;22.30;100.00
23446;BME280;11895;48.738;9.320;2022-08-19T09:06:21;98421.66;;;22.23;100.00
23446;BME280;11895;48.738;9.320;2022-08-19T09:11:19;98420.13;;;22.39;100.00
23446;BME280;11895;48.738;9.320;2022-08-19T09:17:24;98426.34;;;22.13;100.00
23446;BME280;11895;48.738;9.320;2022-08-19T09:22:38;98425.41;;;22.22;100.00
23446;BME280;11895;48.738;9.320;2022-08-19T09:25:09;98437.69;;;22.46;100.00
23446;BME280;11895;48.738;9.320;2022-08-19T09:27:39;98435.31;;;22.51;100.00
23446;BME280;11895;48.738;9.320;2022-08-19T09:30:19;98427.56;;;22.01;100.00
23446;BME280;11895;48.738;9.320;2022-08-19T09:32:49;98427.00;;;22.25;100.00
23446;BME280;11895;48.738;9.320;2022-08-19T09:35:22;98428.94;;;22.32;100.00
23446;BME280;11895;48.738;9.320;2022-08-19T09:37:51;98437.97;;;22.43;100.00
23446;BME280;11895;48.738;9.320;2022-08-19T09:40:28;98442.72;;;22.68;100.00
23446;BME280;11895;48.738;9.320;2022-08-19T09:42:59;98445.22;;;22.44;100.00
23446;BME280;11895;48.738;9.320;2022-08-19T09:45:39;98434.53;;;22.41;100.00
23446;BME280;11895;48.738;9.320;2022-08-19T09:48:06;98442.91;;;22.21;100.00
23446;BME280;11895;48.738;9.320;2022-08-19T09:50:38;98444.09;;;22.37;100.00
23446;BME280;11895;48.738;9.320;2022-08-19T09:53:19;98448.47;;;21.65;100.00
23446;BME280;11895;48.738;9.320;2022-08-19T09:55:52;98443.38;;;22.07;100.00
23446;BME280;11895;48.738;9.320;2022-08-19T09:58:21;98443.94;;;22.20;100.00
23446;BME280;11895;48.738;9.320;2022-08-19T10:00:54;98446.66;;;22.20;100.00
23446;BME280;11895;48.738;9.320;2022-08-19T10:03:22;98439.25;;;22.30;100.00
23446;BME280;11895;48.738;9.320;2022-08-19T10:06:03;98441.38;;;22.54;100.00
23446;BME280;11895;48.738;9.320;2022-08-19T10:08:41;98440.88;;;22.41;98.12
23446;BME280;11895;48.738;9.320;2022-08-19T10:11:17;98440.72;;;22.25;98.91
23446;BME280;11895;48.738;9.320;2022-08-19T10:14:03;98447.34;;;22.50;99.40
23446;BME280;11895;48.738;9.320;2022-08-19T10:16:33;98445.84;;;22.73;98.63
23446;BME280;11895;48.738;9.320;2022-08-19T10:19:05;98453.22;;;22.91;98.80
23446;BME280;11895;48.738;9.320;2022-08-19T10:21:33;98451.97;;;23.03;94.53
23446;BME280;11895;48.738;9.320;2022-08-19T10:24:03;98449.78;;;23.06;87.18
23446;BME280;11895;48.738;9.320;2022-08-19T10:26:40;98451.97;;;23.03;84.42
23446;BME280;11895;48.738;9.320;2022-08-19T10:29:38;98443.38;;;23.24;86.69
23446;BME280;11895;48.738;9.320;2022-08-19T10:32:12;98445.81;;;23.27;85.74
23446;BME280;11895;48.738;9.320;2022-08-19T10:34:40;98443.28;;;23.33;94.48
23446;BME280;11895;48.738;9.320;2022-08-19T10:37:16;98445.34;;;23.31;93.21
23446;BME280;11895;48.738;9.320;2022-08-19T10:39:57;98442.31;;;22.99;90.51
23446;BME280;11895;48.738;9.320;2022-08-19T10:42:24;98431.72;;;22.68;100.00
23446;BME280;11895;48.738;9.320;2022-08-19T10:44:51;98432.72;;;22.67;100.00
23446;BME280;11895;48.738;9.320;2022-08-19T10:47:18;98433.19;;;22.27;100.00
23446;BME280;11895;48.738;9.320;2022-08-19T10:49:53;98434.25;;;21.89;100.00
23446;BME280;11895;48.738;9.320;2022-08-19T10:52:41;98445.72;;;21.18;100.00
23446;BME280;11895;48.738;9.320;2022-08-19T10:55:20;98449.44;;;21.36;100.00
23446;BME280;11895;48.738;9.320;2022-08-19T10:58:12;98439.47;;;21.45;100.00
23446;BME280;11895;48.738;9.320;2022-08-19T11:00:51;98449.13;;;21.49;100.00
23446;BME280;11895;48.738;9.320;2022-08-19T11:03:20;98445.16;;;21.34;100.00
23446;BME280;11895;48.738;9.320;2022-08-19T11:05:59;98446.69;;;21.26;100.00
23446;BME280;11895;48.738;9.320;2022-08-19T11:08:27;98447.28;;;21.40;100.00
23446;BME280;11895;48.738;9.320;2022-08-19T11:10:58;98452.00;;;21.57;100.00
23446;BME280;11895;48.738;9.320;2022-08-19T11:13:29;98450.94;;;21.01;100.00
23446;BME280;11895;48.738;9.320;2022-08-19T11:16:08;98448.19;;;20.92;100.00
23446;BME280;11895;48.738;9.320;2022-08-19T11:18:44;98442.03;;;20.90;100.00
23446;BME280;11895;48.738;9.320;2022-08-19T11:24:06;98451.66;;;21.13;100.00
23446;BME280;11895;48.738;9.320;2022-08-19T11:26:37;98444.97;;;21.25;100.00
23446;BME280;11895;48.738;9.320;2022-08-19T11:29:07;98439.34;;;21.37;100.00
23446;BME280;11895;48.738;9.320;2022-08-19T11:31:43;98444.41;;;21.12;100.00
23446;BME280;11895;48.738;9.320;2022-08-19T11:34:15;98443.13;;;21.16;100.00
23446;BME280;11895;48.738;9.320;2022-08-19T11:36:49;98449.41;;;21.46;100.00
23446;BME280;11895;48.738;9.320;2022-08-19T11:39:20;98447.69;;;21.45;100.00
23446;BME280;11895;48.738;9.320;2022-08-19T11:41:48;98441.84;;;21.67;100.00
23446;BME280;11895;48.738;9.320;2022-08-19T11:44:16;98449.13;;;21.49;100.00
23446;BME280;11895;48.738;9.320;2022-08-19T11:46:44;98445.91;;;21.63;100.00
23446;BME280;11895;48.738;9.320;2022-08-19T11:49:14;98442.47;;;21.89;100.00
23446;BME280;11895;48.738;9.320;2022-08-19T11:51:43;98443.16;;;22.00;100.00
23446;BME280;11895;48.738;9.320;2022-08-19T11:54:11;98446.44;;;21.76;100.00
23446;BME280;11895;48.738;9.320;2022-08-19T11:56:40;98440.13;;;21.94;100.00
23446;BME280;11895;48.738;9.320;2022-08-19T11:59:08;98439.63;;;22.08;100.00
23446;BME280;11895;48.738;9.320;2022-08-19T12:01:41;98436.78;;;22.00;100.00
23446;BME280;11895;48.738;9.320;2022-08-19T12:04:10;98448.19;;;22.05;100.00
23446;BME280;11895;48.738;9.320;2022-08-19T12:06:40;98434.44;;;21.77;100.00
23446;BME280;11895;48.738;9.320;2022-08-19T12:09:09;98438.38;;;21.65;100.00
23446;BME280;11895;48.738;9.320;2022-08-19T12:11:38;98445.25;;;21.79;100.00
23446;BME280;11895;48.738;9.320;2022-08-19T12:14:08;98439.72;;;21.89;100.00
23446;BME280;11895;48.738;9.320;2022-08-19T12:16:40;98442.69;;;22.05;100.00
23446;BME280;11895;48.738;9.320;2022-08-19T12:19:18;98444.41;;;22.06;100.00
23446;BME280;11895;48.738;9.320;2022-08-19T12:21:48;98434.84;;;22.20;100.00
23446;BME280;11895;48.738;9.320;2022-08-19T12:24:16;98445.81;;;21.83;100.00
23446;BME280;11895;48.738;9.320;2022-08-19T12:26:50;98456.94;;;21.44;100.00
23446;BME280;11895;48.738;9.320;2022-08-19T12:29:20;98440.44;;;21.63;100.00
23446;BME280;11895;48.738;9.320;2022-08-19T12:31:50;98446.53;;;21.85;100.00
23446;BME280;11895;48.738;9.320;2022-08-19T12:34:18;98445.00;;;22.00;100.00
23446;BME280;11895;48.738;9.320;2022-08-19T12:36:46;98437.25;;;22.23;100.00
23446;BME280;11895;48.738;9.320;2022-08-19T12:39:16;98436.16;;;22.16;100.00
23446;BME280;11895;48.738;9.320;2022-08-19T12:41:43;98449.66;;;21.90;100.00
23446;BME280;11895;48.738;9.320;2022-08-19T12:44:21;98445.78;;;21.92;100.00
23446;BME280;11895;48.738;9.320;2022-08-19T12:46:56;98448.16;;;22.32;100.00
23446;BME280;11895;48.738;9.320;2022-08-19T12:52:11;98454.13;;;22.00;100.00
23446;BME280;11895;48.738;9.320;2022-08-19T12:54:49;98444.03;;;22.46;100.00
23446;BME280;11895;48.738;9.320;2022-08-19T12:57:22;98453.69;;;22.68;100.00
23446;BME280;11895;48.738;9.320;2022-08-19T13:00:07;98458.41;;;22.58;100.00
23446;BME280;11895;48.738;9.320;2022-08-19T13:02:42;98449.47;;;22.74;100.00
23446;BME280;11895;48.738;9.320;2022-08-19T13:05:14;98462.09;;;22.84;100.00
23446;BME280;11895;48.738;9.320;2022-08-19T13:07:43;98458.03;;;22.25;100.00
23446;BME280;11895;48.738;9.320;2022-08-19T13:10:13;98468.94;;;21.70;100.00
23446;BME280;11895;48.738;9.320;2022-08-19T13:12:44;98466.06;;;21.72;100.00
23446;BME280;11895;48.738;9.320;2022-08-19T13:15:13;98470.13;;;22.05;100.00
23446;BME280;11895;48.738;9.320;2022-08-19T13:17:44;98471.97;;;22.04;100.00
23446;BME280;11895;48.738;9.320;2022-08-19T13:20:11;98480.59;;;21.82;100.00
23446;BME280;11895;48.738;9.320;2022-08-19T13:22:38;98483.66;;;21.69;100.00
23446;BME280;11895;48.738;9.320;2022-08-19T13:25:06;98492.09;;;21.58;100.00
23446;BME280;11895;48.738;9.320;2022-08-19T13:27:35;98483.78;;;21.30;100.00
23446;BME280;11895;48.738;9.320;2022-08-19T13:30:05;98487.09;;;21.15;100.00
23446;BME280;11895;48.738;9.320;2022-08-19T13:32:52;98488.38;;;21.20;100.00
23446;BME280;11895;48.738;9.320;2022-08-19T13:35:39;98485.06;;;21.36;100.00
23446;BME280;11895;48.738;9.320;2022-08-19T13:38:10;98483.44;;;21.53;100.00
23446;BME280;11895;48.738;9.320;2022-08-19T13:40:39;98484.88;;;21.57;100.00
23446;BME280;11895;48.738;9.320;2022-08-19T13:43:08;98474.84;;;21.38;100.00
23446;BME280;11895;48.738;9.320;2022-08-19T13:45:52;98473.38;;;21.24;100.00
23446;BME280;11895;48.738;9.320;2022-08-19T13:48:22;98468.19;;;21.41;100.00
23446;BME280;11895;48.738;9.320;2022-08-19T13:50:52;98469.75;;;21.53;100.00